^^
Station Historical Data
Daily Summary for August 30, 2017 Units:  English    Metric   Both
« Previous Day
Next Day »
Daily Weekly Monthly Yearly Custom
  High: Low: Average:
Temperature: 78.3 °F 57.8 °F 66.3 °F
Dew Point: 59.0 °F 53.0 °F 56 °F
Humidity: 95% 42% 72%
Wind Speed: 5.0mph 0.0mph 1.2mph
Wind Gust: 12.0mph - -
Wind- - West
Pressure: 30.03 in 29.92 in -
Precipitation: 0.01 in    
Historical Graphs
 
 
Tabular Data for August 30, 2017
Time Temperature Dew Point Pressure Wind Wind Speed Wind Gust Humidity Rainfall Rate (Hourly) Conditions
00:00 58.8 °F 56.8 °F 30.03 in SW 1.0 mph 4.0 mph 93% 0.00 in -RA
00:15 58.8 °F 57.1 °F 30.03 in Calm   4.0 mph 94% 0.01 in -RA
00:30 58.9 °F 57.2 °F 30.03 in Calm   4.0 mph 94% 0.00 in -RA
00:45 58.9 °F 57.2 °F 30.02 in WNW 1.0 mph 5.0 mph 94% 0.00 in -RA
01:00 58.9 °F 57.2 °F 30.02 in NNW 1.0 mph 3.0 mph 94% 0.00 in -RA
01:15 58.9 °F 57.2 °F 30.02 in Calm   3.0 mph 94% 0.00 in -RA
01:30 58.8 °F 57.4 °F 29.99 in NW 1.0 mph 5.0 mph 95% 0.00 in -RA
01:45 58.7 °F 57.3 °F 29.99 in Calm   7.0 mph 95% 0.00 in -RA
02:00 58.6 °F 57.2 °F 29.98 in Calm   6.0 mph 95% 0.00 in -RA
02:15 58.6 °F 56.9 °F 29.98 in NW 1.0 mph 6.0 mph 94% 0.00 in OVC
02:30 58.7 °F 57.0 °F 29.98 in Calm   5.0 mph 94% 0.00 in OVC
02:45 58.6 °F 56.8 °F 29.98 in NNW 1.0 mph 4.0 mph 94% 0.00 in OVC
03:00 58.4 °F 56.7 °F 29.97 in NW 1.0 mph 4.0 mph 94% 0.00 in OVC
03:15 58.3 °F 56.6 °F 29.97 in Calm   5.0 mph 94% 0.00 in OVC
03:30 58.3 °F 56.6 °F 29.97 in NNW 1.0 mph 7.0 mph 94% 0.00 in OVC
03:45 58.3 °F 56.6 °F 29.97 in NW 1.0 mph 4.0 mph 94% 0.00 in OVC
04:00 58.2 °F 56.5 °F 29.96 in WNW 1.0 mph 5.0 mph 94% 0.00 in OVC
04:15 58.1 °F 56.1 °F 29.96 in Calm   6.0 mph 93% 0.00 in OVC
04:30 58.0 °F 56.0 °F 29.96 in NNW 1.0 mph 8.0 mph 93% 0.00 in OVC
04:45 57.9 °F 55.9 °F 29.95 in Calm   5.0 mph 93% 0.00 in OVC
05:00 57.8 °F 55.8 °F 29.96 in WNW 1.0 mph 2.0 mph 93% 0.00 in OVC
05:15 57.8 °F 55.8 °F 29.96 in NW 1.0 mph 4.0 mph 93% 0.00 in BKN
05:30 57.9 °F 55.9 °F 29.96 in NW 1.0 mph 2.0 mph 93% 0.00 in BKN
05:45 57.9 °F 55.9 °F 29.96 in Calm   3.0 mph 93% 0.00 in BKN
06:00 57.8 °F 55.8 °F 29.96 in Calm   4.0 mph 93% 0.00 in BKN
06:15 58.0 °F 55.7 °F 29.96 in Calm   5.0 mph 92% 0.00 in OVC
06:30 58.0 °F 55.4 °F 29.97 in NW 2.0 mph 6.0 mph 91% 0.00 in OVC
06:45 58.1 °F 55.5 °F 29.97 in NNW 1.0 mph 7.0 mph 91% 0.00 in OVC
07:00 58.1 °F 55.5 °F 29.97 in Calm   4.0 mph 91% 0.00 in OVC
07:15 58.2 °F 55.3 °F 29.98 in Calm   3.0 mph 90% 0.00 in BKN
07:30 58.4 °F 55.2 °F 29.98 in Calm   4.0 mph 89% 0.00 in BKN
07:45 58.8 °F 55.6 °F 29.99 in NNW 1.0 mph 3.0 mph 89% 0.00 in BKN
08:00 59.1 °F 55.2 °F 29.99 in Calm   9.0 mph 87% 0.00 in BKN
08:15 59.5 °F 55.6 °F 29.99 in Calm   7.0 mph 87% 0.00 in BKN
08:30 60.2 °F 55.7 °F 29.99 in Calm   4.0 mph 85% 0.00 in BKN
08:45 61.7 °F 56.1 °F 29.99 in Calm   5.0 mph 82% 0.00 in BKN
09:00 62.4 °F 55.8 °F 29.99 in NNW 2.0 mph 7.0 mph 79% 0.00 in BKN
09:15 63.3 °F 55.9 °F 29.99 in NNW 2.0 mph 8.0 mph 77% 0.00 in FEW
09:30 63.9 °F 55.4 °F 29.99 in NNW 1.0 mph 10.0 mph 74% 0.00 in FEW
09:45 65.1 °F 55.8 °F 29.99 in WNW 2.0 mph 9.0 mph 72% 0.00 in FEW
10:00 65.4 °F 54.2 °F 29.98 in North 3.0 mph 12.0 mph 67% 0.00 in FEW
10:15 66.2 °F 54.1 °F 29.98 in NNW 5.0 mph 9.0 mph 65% 0.00 in FEW
10:30 66.9 °F 53.9 °F 29.98 in NNW 2.0 mph 8.0 mph 63% 0.00 in FEW
10:45 67.4 °F 53.5 °F 29.98 in NW 3.0 mph 9.0 mph 61% 0.00 in FEW
11:00 68.0 °F 53.6 °F 29.98 in NW 1.0 mph 10.0 mph 60% 0.00 in FEW
11:15 68.5 °F 55.0 °F 29.98 in WNW 3.0 mph 10.0 mph 62% 0.00 in FEW
11:30 68.1 °F 55.4 °F 29.99 in NNW 2.0 mph 8.0 mph 64% 0.00 in FEW
11:45 69.0 °F 55.8 °F 29.99 in NW 1.0 mph 12.0 mph 63% 0.00 in FEW
12:00 69.9 °F 55.8 °F 29.98 in NNW 3.0 mph 9.0 mph 61% 0.00 in FEW
12:15 70.2 °F 55.7 °F 29.98 in NW 5.0 mph 9.0 mph 60% 0.00 in FEW
12:30 70.1 °F 55.6 °F 29.98 in NW 5.0 mph 9.0 mph 60% 0.00 in FEW
12:45 70.8 °F 55.8 °F 29.98 in NNW 2.0 mph 9.0 mph 59% 0.00 in FEW
13:00 71.9 °F 55.3 °F 29.97 in NNW 2.0 mph 9.0 mph 56% 0.00 in FEW
13:15 71.9 °F 54.3 °F 29.97 in North 1.0 mph 12.0 mph 54% 0.00 in FEW
13:30 72.7 °F 53.0 °F 29.97 in NNW 2.0 mph 12.0 mph 50% 0.00 in FEW
13:45 72.9 °F 53.7 °F 29.96 in NNE 3.0 mph 9.0 mph 51% 0.00 in FEW
14:00 73.0 °F 53.8 °F 29.95 in NW 3.0 mph 9.0 mph 51% 0.00 in FEW
14:15 73.4 °F 54.2 °F 29.95 in WNW 1.0 mph 9.0 mph 51% 0.00 in FEW
14:45 74.6 °F 54.2 °F 29.94 in Calm   6.0 mph 49% 0.00 in FEW
15:00 75.3 °F 54.3 °F 29.94 in WNW 2.0 mph 4.0 mph 48% 0.00 in FEW
15:15 75.8 °F 54.7 °F 29.93 in Calm   4.0 mph 48% 0.00 in FEW
15:30 76.2 °F 53.9 °F 29.93 in Calm   6.0 mph 46% 0.00 in FEW
15:45 76.4 °F 54.1 °F 29.93 in NE 2.0 mph 5.0 mph 46% 0.00 in FEW
16:00 76.6 °F 53.0 °F 29.93 in WNW 2.0 mph 5.0 mph 44% 0.00 in FEW
16:15 76.5 °F 53.0 °F 29.93 in NW 2.0 mph 6.0 mph 44% 0.00 in FEW
16:30 78.3 °F 53.3 °F 29.93 in SW 2.0 mph 5.0 mph 42% 0.00 in FEW
16:45 77.5 °F 53.9 °F 29.92 in SW 2.0 mph 5.0 mph 44% 0.00 in FEW
17:00 76.3 °F 54.0 °F 29.92 in Calm   3.0 mph 46% 0.00 in FEW
17:15 76.6 °F 54.2 °F 29.92 in West 1.0 mph 6.0 mph 46% 0.00 in FEW
17:45 77.0 °F 56.4 °F 29.93 in SSW 1.0 mph 6.0 mph 49% 0.00 in FEW
18:00 77.0 °F 57.5 °F 29.92 in WSW 1.0 mph 7.0 mph 51% 0.00 in FEW
18:15 76.7 °F 57.2 °F 29.92 in SSW 3.0 mph 9.0 mph 51% 0.00 in FEW
18:30 76.4 °F 57.5 °F 29.92 in Calm   6.0 mph 52% 0.00 in FEW
18:45 75.8 °F 56.9 °F 29.92 in SW 3.0 mph 8.0 mph 52% 0.00 in FEW
19:00 74.6 °F 57.3 °F 29.92 in SSW 1.0 mph 6.0 mph 55% 0.00 in FEW
19:15 73.6 °F 56.9 °F 29.92 in SW 1.0 mph 5.0 mph 56% 0.00 in FEW
19:30 72.9 °F 57.3 °F 29.93 in SSW 2.0 mph 5.0 mph 58% 0.00 in FEW
19:45 72.6 °F 57.0 °F 29.93 in SW 2.0 mph 6.0 mph 58% 0.00 in FEW
20:00 72.1 °F 57.4 °F 29.93 in SSE 1.0 mph 5.0 mph 60% 0.00 in FEW
20:15 71.7 °F 57.5 °F 29.93 in SSW 1.0 mph 5.0 mph 61% 0.00 in CLR
20:30 71.4 °F 58.1 °F 29.93 in SSW 1.0 mph 6.0 mph 63% 0.00 in CLR
20:45 71.2 °F 58.4 °F 29.93 in SSW 2.0 mph 7.0 mph 64% 0.00 in CLR
21:15 70.7 °F 58.4 °F 29.94 in Calm   7.0 mph 65% 0.00 in CLR
21:30 70.2 °F 58.8 °F 29.94 in SSW 1.0 mph 5.0 mph 67% 0.00 in CLR
21:45 69.2 °F 59.0 °F 29.94 in Calm   2.0 mph 70% 0.00 in CLR
22:00 68.0 °F 58.7 °F 29.94 in Calm   3.0 mph 72% 0.00 in CLR
22:15 67.0 °F 58.4 °F 29.94 in Calm   3.0 mph 74% 0.00 in CLR
22:30 66.6 °F 58.4 °F 29.94 in SSE 1.0 mph 4.0 mph 75% 0.00 in CLR
22:45 66.3 °F 58.5 °F 29.94 in Calm   3.0 mph 76% 0.00 in CLR
23:00 66.1 °F 58.3 °F 29.94 in SE 1.0 mph 4.0 mph 76% 0.00 in CLR
23:30 65.9 °F 58.5 °F 29.93 in SE 1.0 mph 3.0 mph 77% 0.00 in CLR
23:45 65.7 °F 58.7 °F 29.93 in Calm   3.0 mph 78% 0.00 in CLR
TarryTown NY Weather
Compliments of Weather Underground - 1.5 mb